sensor_id;sensor_type;location;lat;lon;timestamp;P1;durP1;ratioP1;P2;durP2;ratioP2
9324;SDS011;4701;51.566;6.776;2022-07-06T05:06:51;6.60;;;3.27;;
9324;SDS011;4701;51.566;6.776;2022-07-06T05:08:53;5.80;;;3.70;;
9324;SDS011;4701;51.566;6.776;2022-07-06T05:10:55;6.03;;;3.63;;
9324;SDS011;4701;51.566;6.776;2022-07-06T05:12:57;8.40;;;3.87;;
9324;SDS011;4701;51.566;6.776;2022-07-06T05:15:00;7.00;;;3.50;;
9324;SDS011;4701;51.566;6.776;2022-07-06T05:17:03;6.20;;;3.63;;
9324;SDS011;4701;51.566;6.776;2022-07-06T05:19:05;4.97;;;3.63;;
9324;SDS011;4701;51.566;6.776;2022-07-06T05:21:08;9.07;;;3.47;;
9324;SDS011;4701;51.566;6.776;2022-07-06T05:23:11;7.20;;;3.90;;
9324;SDS011;4701;51.566;6.776;2022-07-06T05:25:14;7.63;;;3.60;;
9324;SDS011;4701;51.566;6.776;2022-07-06T05:27:17;4.63;;;3.00;;
9324;SDS011;4701;51.566;6.776;2022-07-06T05:29:20;6.50;;;3.20;;
9324;SDS011;4701;51.566;6.776;2022-07-06T05:31:24;7.80;;;2.93;;
9324;SDS011;4701;51.566;6.776;2022-07-06T05:33:27;7.50;;;2.57;;
9324;SDS011;4701;51.566;6.776;2022-07-06T05:35:29;4.47;;;3.00;;
9324;SDS011;4701;51.566;6.776;2022-07-06T05:37:32;5.60;;;3.33;;
9324;SDS011;4701;51.566;6.776;2022-07-06T05:39:35;8.23;;;3.03;;
9324;SDS011;4701;51.566;6.776;2022-07-06T05:41:39;5.90;;;2.77;;
9324;SDS011;4701;51.566;6.776;2022-07-06T05:43:41;5.33;;;2.70;;
9324;SDS011;4701;51.566;6.776;2022-07-06T05:45:42;4.60;;;2.60;;
9324;SDS011;4701;51.566;6.776;2022-07-06T05:47:45;11.87;;;3.17;;
9324;SDS011;4701;51.566;6.776;2022-07-06T05:50:07;8.53;;;2.40;;
9324;SDS011;4701;51.566;6.776;2022-07-06T05:52:21;7.47;;;3.00;;
9324;SDS011;4701;51.566;6.776;2022-07-06T05:54:23;5.93;;;2.93;;
9324;SDS011;4701;51.566;6.776;2022-07-06T05:56:27;6.07;;;2.93;;
9324;SDS011;4701;51.566;6.776;2022-07-06T05:58:29;6.40;;;2.70;;
9324;SDS011;4701;51.566;6.776;2022-07-06T06:00:33;10.73;;;2.80;;
9324;SDS011;4701;51.566;6.776;2022-07-06T06:02:42;7.63;;;3.20;;
9324;SDS011;4701;51.566;6.776;2022-07-06T06:04:49;7.07;;;2.70;;
9324;SDS011;4701;51.566;6.776;2022-07-06T06:06:51;7.70;;;3.20;;
9324;SDS011;4701;51.566;6.776;2022-07-06T06:08:53;7.10;;;3.10;;
9324;SDS011;4701;51.566;6.776;2022-07-06T06:10:55;4.53;;;2.90;;
9324;SDS011;4701;51.566;6.776;2022-07-06T06:13:04;10.17;;;3.10;;
9324;SDS011;4701;51.566;6.776;2022-07-06T06:15:07;6.37;;;2.80;;
9324;SDS011;4701;51.566;6.776;2022-07-06T06:17:11;7.10;;;2.67;;
9324;SDS011;4701;51.566;6.776;2022-07-06T06:19:13;5.17;;;2.70;;
9324;SDS011;4701;51.566;6.776;2022-07-06T06:21:15;8.13;;;3.33;;
9324;SDS011;4701;51.566;6.776;2022-07-06T06:23:17;5.60;;;2.70;;
9324;SDS011;4701;51.566;6.776;2022-07-06T06:25:21;12.20;;;3.60;;
9324;SDS011;4701;51.566;6.776;2022-07-06T06:27:30;6.70;;;2.67;;
9324;SDS011;4701;51.566;6.776;2022-07-06T06:29:34;7.47;;;2.77;;
9324;SDS011;4701;51.566;6.776;2022-07-06T06:31:36;7.10;;;3.03;;
9324;SDS011;4701;51.566;6.776;2022-07-06T06:33:38;6.60;;;2.80;;
9324;SDS011;4701;51.566;6.776;2022-07-06T06:35:41;5.57;;;2.40;;
9324;SDS011;4701;51.566;6.776;2022-07-06T06:37:45;5.83;;;2.77;;
9324;SDS011;4701;51.566;6.776;2022-07-06T06:39:48;7.37;;;2.50;;
9324;SDS011;4701;51.566;6.776;2022-07-06T06:41:50;4.10;;;2.53;;
9324;SDS011;4701;51.566;6.776;2022-07-06T06:43:52;7.20;;;2.67;;
9324;SDS011;4701;51.566;6.776;2022-07-06T06:45:59;7.63;;;2.80;;
9324;SDS011;4701;51.566;6.776;2022-07-06T06:48:01;4.83;;;2.77;;
9324;SDS011;4701;51.566;6.776;2022-07-06T06:50:04;4.40;;;2.37;;
9324;SDS011;4701;51.566;6.776;2022-07-06T06:52:07;7.60;;;2.97;;
9324;SDS011;4701;51.566;6.776;2022-07-06T06:54:09;4.17;;;2.80;;
9324;SDS011;4701;51.566;6.776;2022-07-06T06:56:11;5.40;;;2.90;;
9324;SDS011;4701;51.566;6.776;2022-07-06T06:58:13;3.73;;;2.47;;
9324;SDS011;4701;51.566;6.776;2022-07-06T07:00:15;4.47;;;2.47;;
9324;SDS011;4701;51.566;6.776;2022-07-06T07:02:19;4.67;;;2.43;;
9324;SDS011;4701;51.566;6.776;2022-07-06T07:04:24;2.63;;;2.20;;
9324;SDS011;4701;51.566;6.776;2022-07-06T07:06:31;5.33;;;2.33;;
9324;SDS011;4701;51.566;6.776;2022-07-06T07:08:42;3.57;;;1.90;;
9324;SDS011;4701;51.566;6.776;2022-07-06T07:10:44;3.37;;;1.50;;
9324;SDS011;4701;51.566;6.776;2022-07-06T07:12:46;4.50;;;1.57;;
9324;SDS011;4701;51.566;6.776;2022-07-06T07:14:50;2.80;;;1.00;;
9324;SDS011;4701;51.566;6.776;2022-07-06T07:16:56;4.40;;;1.57;;
9324;SDS011;4701;51.566;6.776;2022-07-06T07:18:59;5.77;;;1.57;;
9324;SDS011;4701;51.566;6.776;2022-07-06T07:21:01;2.60;;;1.10;;
9324;SDS011;4701;51.566;6.776;2022-07-06T07:23:03;3.53;;;1.50;;
9324;SDS011;4701;51.566;6.776;2022-07-06T07:25:05;1.67;;;1.03;;
9324;SDS011;4701;51.566;6.776;2022-07-06T07:27:08;5.43;;;1.07;;
9324;SDS011;4701;51.566;6.776;2022-07-06T07:29:11;2.23;;;1.00;;
9324;SDS011;4701;51.566;6.776;2022-07-06T07:31:12;4.23;;;1.07;;
9324;SDS011;4701;51.566;6.776;2022-07-06T07:33:14;3.87;;;1.03;;
9324;SDS011;4701;51.566;6.776;2022-07-06T07:35:27;2.47;;;0.80;;
9324;SDS011;4701;51.566;6.776;2022-07-06T07:37:32;3.27;;;1.07;;
9324;SDS011;4701;51.566;6.776;2022-07-06T07:39:35;2.67;;;0.90;;
9324;SDS011;4701;51.566;6.776;2022-07-06T07:41:37;2.37;;;0.97;;
9324;SDS011;4701;51.566;6.776;2022-07-06T07:43:39;3.70;;;1.10;;
9324;SDS011;4701;51.566;6.776;2022-07-06T07:45:44;3.93;;;0.93;;
9324;SDS011;4701;51.566;6.776;2022-07-06T07:47:48;2.90;;;0.80;;
9324;SDS011;4701;51.566;6.776;2022-07-06T07:49:50;3.10;;;1.10;;
9324;SDS011;4701;51.566;6.776;2022-07-06T07:51:56;1.47;;;0.97;;
9324;SDS011;4701;51.566;6.776;2022-07-06T07:53:58;2.23;;;0.83;;
9324;SDS011;4701;51.566;6.776;2022-07-06T07:56:00;3.27;;;0.73;;
9324;SDS011;4701;51.566;6.776;2022-07-06T07:58:02;3.23;;;0.80;;
9324;SDS011;4701;51.566;6.776;2022-07-06T08:00:05;3.70;;;1.27;;
9324;SDS011;4701;51.566;6.776;2022-07-06T08:04:18;2.57;;;0.63;;
9324;SDS011;4701;51.566;6.776;2022-07-06T08:06:20;2.93;;;0.83;;
9324;SDS011;4701;51.566;6.776;2022-07-06T08:08:23;2.50;;;0.80;;
9324;SDS011;4701;51.566;6.776;2022-07-06T08:10:25;3.17;;;0.83;;
9324;SDS011;4701;51.566;6.776;2022-07-06T08:12:26;3.30;;;0.80;;
9324;SDS011;4701;51.566;6.776;2022-07-06T08:14:28;3.33;;;0.73;;
9324;SDS011;4701;51.566;6.776;2022-07-06T08:16:30;4.30;;;0.93;;
9324;SDS011;4701;51.566;6.776;2022-07-06T08:18:35;3.17;;;1.27;;
9324;SDS011;4701;51.566;6.776;2022-07-06T08:20:39;4.33;;;0.87;;
9324;SDS011;4701;51.566;6.776;2022-07-06T08:22:41;3.70;;;0.90;;
9324;SDS011;4701;51.566;6.776;2022-07-06T08:24:45;1.77;;;0.70;;
9324;SDS011;4701;51.566;6.776;2022-07-06T08:26:47;1.93;;;0.70;;
9324;SDS011;4701;51.566;6.776;2022-07-06T08:28:49;3.00;;;0.80;;
9324;SDS011;4701;51.566;6.776;2022-07-06T08:30:51;1.70;;;0.60;;
9324;SDS011;4701;51.566;6.776;2022-07-06T08:32:54;1.33;;;0.60;;
9324;SDS011;4701;51.566;6.776;2022-07-06T08:34:56;4.23;;;1.00;;
9324;SDS011;4701;51.566;6.776;2022-07-06T08:37:00;1.83;;;0.60;;
9324;SDS011;4701;51.566;6.776;2022-07-06T08:39:02;3.07;;;0.70;;
9324;SDS011;4701;51.566;6.776;2022-07-06T08:41:09;4.50;;;1.20;;
9324;SDS011;4701;51.566;6.776;2022-07-06T08:43:12;3.90;;;0.67;;
9324;SDS011;4701;51.566;6.776;2022-07-06T08:45:14;1.20;;;0.63;;
9324;SDS011;4701;51.566;6.776;2022-07-06T08:47:17;4.17;;;1.10;;
9324;SDS011;4701;51.566;6.776;2022-07-06T08:49:20;6.23;;;0.93;;
9324;SDS011;4701;51.566;6.776;2022-07-06T08:51:24;2.13;;;0.60;;
9324;SDS011;4701;51.566;6.776;2022-07-06T08:53:26;3.03;;;0.80;;
9324;SDS011;4701;51.566;6.776;2022-07-06T08:55:29;3.40;;;0.80;;
9324;SDS011;4701;51.566;6.776;2022-07-06T08:57:33;1.20;;;0.70;;
9324;SDS011;4701;51.566;6.776;2022-07-06T08:59:35;0.83;;;0.67;;
9324;SDS011;4701;51.566;6.776;2022-07-06T09:01:38;1.50;;;0.70;;
9324;SDS011;4701;51.566;6.776;2022-07-06T09:03:40;2.13;;;0.80;;
9324;SDS011;4701;51.566;6.776;2022-07-06T09:05:43;6.80;;;0.77;;
9324;SDS011;4701;51.566;6.776;2022-07-06T09:07:48;3.33;;;0.70;;
9324;SDS011;4701;51.566;6.776;2022-07-06T09:09:50;2.67;;;0.80;;
9324;SDS011;4701;51.566;6.776;2022-07-06T09:11:56;1.37;;;0.53;;
9324;SDS011;4701;51.566;6.776;2022-07-06T09:14:00;2.03;;;0.73;;
9324;SDS011;4701;51.566;6.776;2022-07-06T09:16:11;2.10;;;0.60;;
9324;SDS011;4701;51.566;6.776;2022-07-06T09:18:16;1.87;;;0.70;;
9324;SDS011;4701;51.566;6.776;2022-07-06T09:20:18;6.10;;;0.93;;
9324;SDS011;4701;51.566;6.776;2022-07-06T09:22:27;2.37;;;0.90;;
9324;SDS011;4701;51.566;6.776;2022-07-06T09:24:32;2.90;;;0.80;;
9324;SDS011;4701;51.566;6.776;2022-07-06T09:26:40;2.13;;;1.07;;
9324;SDS011;4701;51.566;6.776;2022-07-06T09:28:42;1.80;;;0.77;;
9324;SDS011;4701;51.566;6.776;2022-07-06T09:30:46;2.43;;;0.87;;
9324;SDS011;4701;51.566;6.776;2022-07-06T09:32:49;1.30;;;0.63;;
9324;SDS011;4701;51.566;6.776;2022-07-06T09:34:54;2.40;;;0.80;;
9324;SDS011;4701;51.566;6.776;2022-07-06T09:36:56;0.70;;;0.60;;
9324;SDS011;4701;51.566;6.776;2022-07-06T09:38:58;2.70;;;0.90;;
9324;SDS011;4701;51.566;6.776;2022-07-06T09:41:29;1.93;;;0.60;;
9324;SDS011;4701;51.566;6.776;2022-07-06T09:43:32;1.73;;;0.70;;
9324;SDS011;4701;51.566;6.776;2022-07-06T09:45:34;3.07;;;0.60;;
9324;SDS011;4701;51.566;6.776;2022-07-06T09:47:38;3.97;;;1.00;;
9324;SDS011;4701;51.566;6.776;2022-07-06T09:49:42;1.57;;;0.80;;
9324;SDS011;4701;51.566;6.776;2022-07-06T09:51:48;2.90;;;1.17;;
9324;SDS011;4701;51.566;6.776;2022-07-06T09:53:51;2.00;;;1.00;;
9324;SDS011;4701;51.566;6.776;2022-07-06T09:55:54;1.60;;;0.73;;
9324;SDS011;4701;51.566;6.776;2022-07-06T09:57:58;2.43;;;0.80;;
9324;SDS011;4701;51.566;6.776;2022-07-06T10:00:00;2.00;;;0.70;;
9324;SDS011;4701;51.566;6.776;2022-07-06T10:02:02;1.07;;;0.70;;
9324;SDS011;4701;51.566;6.776;2022-07-06T10:04:07;1.80;;;0.80;;
9324;SDS011;4701;51.566;6.776;2022-07-06T10:06:10;1.17;;;0.70;;
9324;SDS011;4701;51.566;6.776;2022-07-06T10:08:16;2.93;;;0.70;;
9324;SDS011;4701;51.566;6.776;2022-07-06T10:10:18;2.43;;;0.67;;
9324;SDS011;4701;51.566;6.776;2022-07-06T10:12:20;1.20;;;0.70;;
9324;SDS011;4701;51.566;6.776;2022-07-06T10:14:23;0.90;;;0.50;;
9324;SDS011;4701;51.566;6.776;2022-07-06T10:16:26;2.00;;;0.60;;
9324;SDS011;4701;51.566;6.776;2022-07-06T10:18:29;4.33;;;0.63;;
9324;SDS011;4701;51.566;6.776;2022-07-06T10:20:33;2.77;;;0.50;;
9324;SDS011;4701;51.566;6.776;2022-07-06T10:22:37;4.10;;;0.70;;
9324;SDS011;4701;51.566;6.776;2022-07-06T10:24:40;2.97;;;0.80;;
9324;SDS011;4701;51.566;6.776;2022-07-06T10:26:43;4.10;;;0.63;;
9324;SDS011;4701;51.566;6.776;2022-07-06T10:28:47;0.97;;;0.70;;
9324;SDS011;4701;51.566;6.776;2022-07-06T10:30:50;2.53;;;0.70;;
9324;SDS011;4701;51.566;6.776;2022-07-06T10:32:52;1.87;;;0.67;;
9324;SDS011;4701;51.566;6.776;2022-07-06T10:34:56;2.77;;;0.90;;
9324;SDS011;4701;51.566;6.776;2022-07-06T10:36:59;3.23;;;0.73;;
9324;SDS011;4701;51.566;6.776;2022-07-06T10:39:02;2.60;;;0.70;;
9324;SDS011;4701;51.566;6.776;2022-07-06T10:41:30;4.27;;;0.83;;
9324;SDS011;4701;51.566;6.776;2022-07-06T10:43:32;1.50;;;0.50;;
9324;SDS011;4701;51.566;6.776;2022-07-06T10:45:50;2.23;;;0.70;;
9324;SDS011;4701;51.566;6.776;2022-07-06T10:50:21;3.00;;;1.03;;
9324;SDS011;4701;51.566;6.776;2022-07-06T10:52:24;2.10;;;0.60;;
9324;SDS011;4701;51.566;6.776;2022-07-06T10:54:49;2.43;;;0.63;;
9324;SDS011;4701;51.566;6.776;2022-07-06T10:56:51;1.63;;;0.80;;
9324;SDS011;4701;51.566;6.776;2022-07-06T10:58:53;4.83;;;1.03;;
9324;SDS011;4701;51.566;6.776;2022-07-06T11:00:57;2.50;;;0.93;;
9324;SDS011;4701;51.566;6.776;2022-07-06T11:03:07;2.93;;;1.20;;
9324;SDS011;4701;51.566;6.776;2022-07-06T11:05:42;2.83;;;1.20;;
9324;SDS011;4701;51.566;6.776;2022-07-06T11:07:49;2.80;;;1.00;;
9324;SDS011;4701;51.566;6.776;2022-07-06T11:09:53;1.60;;;0.90;;
9324;SDS011;4701;51.566;6.776;2022-07-06T11:11:56;4.03;;;0.80;;
9324;SDS011;4701;51.566;6.776;2022-07-06T11:14:01;3.60;;;1.20;;
9324;SDS011;4701;51.566;6.776;2022-07-06T11:16:05;2.13;;;0.90;;
9324;SDS011;4701;51.566;6.776;2022-07-06T11:18:10;3.17;;;0.87;;
9324;SDS011;4701;51.566;6.776;2022-07-06T11:20:13;3.07;;;1.00;;
9324;SDS011;4701;51.566;6.776;2022-07-06T11:22:17;2.70;;;1.10;;
9324;SDS011;4701;51.566;6.776;2022-07-06T11:24:22;4.70;;;1.00;;
9324;SDS011;4701;51.566;6.776;2022-07-06T11:26:25;4.83;;;1.07;;
9324;SDS011;4701;51.566;6.776;2022-07-06T11:28:28;1.67;;;0.80;;
9324;SDS011;4701;51.566;6.776;2022-07-06T11:30:31;2.47;;;0.90;;
9324;SDS011;4701;51.566;6.776;2022-07-06T11:32:33;2.20;;;0.90;;
9324;SDS011;4701;51.566;6.776;2022-07-06T11:34:37;3.03;;;1.00;;
9324;SDS011;4701;51.566;6.776;2022-07-06T11:36:40;3.03;;;0.90;;
9324;SDS011;4701;51.566;6.776;2022-07-06T11:38:42;2.93;;;0.90;;
9324;SDS011;4701;51.566;6.776;2022-07-06T11:40:47;1.97;;;0.90;;
9324;SDS011;4701;51.566;6.776;2022-07-06T11:42:52;3.33;;;0.77;;
9324;SDS011;4701;51.566;6.776;2022-07-06T11:44:54;2.37;;;0.90;;
9324;SDS011;4701;51.566;6.776;2022-07-06T11:46:56;1.63;;;0.70;;
9324;SDS011;4701;51.566;6.776;2022-07-06T11:49:02;1.70;;;0.60;;
9324;SDS011;4701;51.566;6.776;2022-07-06T11:51:05;3.33;;;0.67;;
9324;SDS011;4701;51.566;6.776;2022-07-06T11:53:06;3.03;;;0.80;;
9324;SDS011;4701;51.566;6.776;2022-07-06T11:55:08;3.20;;;0.77;;
9324;SDS011;4701;51.566;6.776;2022-07-06T11:57:11;1.80;;;0.80;;
9324;SDS011;4701;51.566;6.776;2022-07-06T11:59:13;2.97;;;0.87;;
9324;SDS011;4701;51.566;6.776;2022-07-06T12:01:16;3.70;;;1.27;;
9324;SDS011;4701;51.566;6.776;2022-07-06T12:03:18;1.93;;;0.97;;
9324;SDS011;4701;51.566;6.776;2022-07-06T12:05:28;4.37;;;1.17;;
9324;SDS011;4701;51.566;6.776;2022-07-06T12:07:30;2.30;;;0.80;;
9324;SDS011;4701;51.566;6.776;2022-07-06T12:09:32;4.67;;;1.00;;
9324;SDS011;4701;51.566;6.776;2022-07-06T12:11:35;2.57;;;1.20;;
9324;SDS011;4701;51.566;6.776;2022-07-06T12:13:41;5.93;;;1.10;;
9324;SDS011;4701;51.566;6.776;2022-07-06T12:15:43;6.00;;;0.80;;
9324;SDS011;4701;51.566;6.776;2022-07-06T12:17:46;1.53;;;0.90;;
9324;SDS011;4701;51.566;6.776;2022-07-06T12:19:52;2.17;;;0.70;;
9324;SDS011;4701;51.566;6.776;2022-07-06T12:21:54;2.60;;;1.23;;
9324;SDS011;4701;51.566;6.776;2022-07-06T12:23:56;2.33;;;0.87;;
9324;SDS011;4701;51.566;6.776;2022-07-06T12:25:59;2.33;;;0.90;;
9324;SDS011;4701;51.566;6.776;2022-07-06T12:28:00;1.90;;;0.80;;
9324;SDS011;4701;51.566;6.776;2022-07-06T12:30:11;3.70;;;0.70;;
9324;SDS011;4701;51.566;6.776;2022-07-06T12:32:14;3.17;;;0.90;;
9324;SDS011;4701;51.566;6.776;2022-07-06T12:34:17;1.77;;;0.83;;
9324;SDS011;4701;51.566;6.776;2022-07-06T12:36:20;2.73;;;0.77;;
9324;SDS011;4701;51.566;6.776;2022-07-06T12:38:22;1.17;;;0.60;;
9324;SDS011;4701;51.566;6.776;2022-07-06T12:40:25;2.57;;;0.70;;
9324;SDS011;4701;51.566;6.776;2022-07-06T12:42:28;2.47;;;0.80;;
9324;SDS011;4701;51.566;6.776;2022-07-06T12:44:30;4.07;;;0.80;;
9324;SDS011;4701;51.566;6.776;2022-07-06T12:46:35;2.33;;;0.73;;
9324;SDS011;4701;51.566;6.776;2022-07-06T12:48:50;0.97;;;0.60;;
9324;SDS011;4701;51.566;6.776;2022-07-06T12:50:52;1.40;;;0.63;;
9324;SDS011;4701;51.566;6.776;2022-07-06T12:52:57;2.80;;;0.70;;
9324;SDS011;4701;51.566;6.776;2022-07-06T12:54:59;2.50;;;0.80;;
9324;SDS011;4701;51.566;6.776;2022-07-06T12:57:06;3.67;;;0.80;;
9324;SDS011;4701;51.566;6.776;2022-07-06T12:59:20;2.00;;;0.60;;
9324;SDS011;4701;51.566;6.776;2022-07-06T13:01:23;1.50;;;0.60;;
9324;SDS011;4701;51.566;6.776;2022-07-06T13:03:26;4.00;;;0.77;;
9324;SDS011;4701;51.566;6.776;2022-07-06T13:05:28;2.33;;;0.73;;
9324;SDS011;4701;51.566;6.776;2022-07-06T13:07:31;6.57;;;1.00;;
9324;SDS011;4701;51.566;6.776;2022-07-06T13:09:35;4.00;;;0.77;;
9324;SDS011;4701;51.566;6.776;2022-07-06T13:11:37;2.83;;;0.60;;
9324;SDS011;4701;51.566;6.776;2022-07-06T13:13:42;2.90;;;0.90;;
9324;SDS011;4701;51.566;6.776;2022-07-06T13:15:44;3.73;;;0.83;;
9324;SDS011;4701;51.566;6.776;2022-07-06T13:17:46;2.40;;;0.77;;
9324;SDS011;4701;51.566;6.776;2022-07-06T13:19:49;1.80;;;0.80;;
9324;SDS011;4701;51.566;6.776;2022-07-06T13:21:51;2.97;;;0.70;;
9324;SDS011;4701;51.566;6.776;2022-07-06T13:23:53;3.20;;;0.60;;
9324;SDS011;4701;51.566;6.776;2022-07-06T13:25:55;2.93;;;0.83;;
9324;SDS011;4701;51.566;6.776;2022-07-06T13:27:57;3.00;;;0.60;;
9324;SDS011;4701;51.566;6.776;2022-07-06T13:29:59;1.27;;;0.60;;
9324;SDS011;4701;51.566;6.776;2022-07-06T13:32:00;1.40;;;0.50;;
9324;SDS011;4701;51.566;6.776;2022-07-06T13:34:03;2.13;;;0.70;;
9324;SDS011;4701;51.566;6.776;2022-07-06T13:36:06;1.63;;;0.50;;
9324;SDS011;4701;51.566;6.776;2022-07-06T13:38:08;4.90;;;0.60;;
9324;SDS011;4701;51.566;6.776;2022-07-06T13:40:10;1.57;;;0.53;;
9324;SDS011;4701;51.566;6.776;2022-07-06T13:42:12;2.67;;;1.00;;
9324;SDS011;4701;51.566;6.776;2022-07-06T13:44:14;3.07;;;0.97;;
9324;SDS011;4701;51.566;6.776;2022-07-06T13:46:16;1.13;;;0.60;;
9324;SDS011;4701;51.566;6.776;2022-07-06T13:48:18;1.63;;;0.70;;
9324;SDS011;4701;51.566;6.776;2022-07-06T13:50:20;5.30;;;0.80;;
9324;SDS011;4701;51.566;6.776;2022-07-06T13:52:23;2.37;;;0.70;;
9324;SDS011;4701;51.566;6.776;2022-07-06T13:54:25;3.40;;;0.67;;
9324;SDS011;4701;51.566;6.776;2022-07-06T13:56:27;1.83;;;0.70;;
9324;SDS011;4701;51.566;6.776;2022-07-06T13:58:28;4.93;;;0.93;;
9324;SDS011;4701;51.566;6.776;2022-07-06T14:00:30;1.63;;;0.60;;
9324;SDS011;4701;51.566;6.776;2022-07-06T14:02:32;2.93;;;0.60;;
9324;SDS011;4701;51.566;6.776;2022-07-06T14:04:34;2.27;;;0.97;;
9324;SDS011;4701;51.566;6.776;2022-07-06T14:06:37;1.23;;;0.60;;
9324;SDS011;4701;51.566;6.776;2022-07-06T14:08:40;2.33;;;0.50;;
9324;SDS011;4701;51.566;6.776;2022-07-06T14:10:42;2.23;;;0.60;;
9324;SDS011;4701;51.566;6.776;2022-07-06T14:12:44;2.53;;;0.75;;
9324;SDS011;4701;51.566;6.776;2022-07-06T14:14:46;2.90;;;0.60;;
9324;SDS011;4701;51.566;6.776;2022-07-06T14:16:47;1.73;;;0.73;;
9324;SDS011;4701;51.566;6.776;2022-07-06T14:18:51;1.48;;;0.50;;
9324;SDS011;4701;51.566;6.776;2022-07-06T14:20:53;3.55;;;0.82;;
9324;SDS011;4701;51.566;6.776;2022-07-06T14:22:55;1.75;;;0.70;;
9324;SDS011;4701;51.566;6.776;2022-07-06T14:24:59;2.70;;;0.90;;
9324;SDS011;4701;51.566;6.776;2022-07-06T14:27:01;3.08;;;0.77;;
9324;SDS011;4701;51.566;6.776;2022-07-06T14:29:03;3.15;;;0.50;;
9324;SDS011;4701;51.566;6.776;2022-07-06T14:31:05;3.08;;;0.70;;
9324;SDS011;4701;51.566;6.776;2022-07-06T14:33:08;1.73;;;0.85;;
9324;SDS011;4701;51.566;6.776;2022-07-06T14:35:10;1.40;;;0.40;;
9324;SDS011;4701;51.566;6.776;2022-07-06T14:37:12;3.45;;;0.70;;
9324;SDS011;4701;51.566;6.776;2022-07-06T14:39:14;1.70;;;0.60;;
9324;SDS011;4701;51.566;6.776;2022-07-06T14:41:17;2.17;;;0.80;;
9324;SDS011;4701;51.566;6.776;2022-07-06T14:43:19;1.48;;;0.70;;
9324;SDS011;4701;51.566;6.776;2022-07-06T14:45:21;4.00;;;0.70;;
9324;SDS011;4701;51.566;6.776;2022-07-06T14:47:22;4.68;;;1.40;;
9324;SDS011;4701;51.566;6.776;2022-07-06T14:49:24;0.90;;;0.60;;
9324;SDS011;4701;51.566;6.776;2022-07-06T14:51:26;2.13;;;0.90;;
9324;SDS011;4701;51.566;6.776;2022-07-06T14:53:28;0.98;;;0.85;;
9324;SDS011;4701;51.566;6.776;2022-07-06T14:55:31;4.07;;;0.95;;
9324;SDS011;4701;51.566;6.776;2022-07-06T14:57:34;5.20;;;1.15;;
9324;SDS011;4701;51.566;6.776;2022-07-06T14:59:36;2.83;;;1.00;;
9324;SDS011;4701;51.566;6.776;2022-07-06T15:01:38;2.25;;;0.80;;
9324;SDS011;4701;51.566;6.776;2022-07-06T15:03:40;1.97;;;0.70;;
9324;SDS011;4701;51.566;6.776;2022-07-06T15:05:41;3.03;;;0.88;;
9324;SDS011;4701;51.566;6.776;2022-07-06T15:07:46;2.23;;;0.70;;
9324;SDS011;4701;51.566;6.776;2022-07-06T15:09:48;3.30;;;0.60;;
9324;SDS011;4701;51.566;6.776;2022-07-06T15:11:50;2.63;;;0.87;;
9324;SDS011;4701;51.566;6.776;2022-07-06T15:13:53;3.80;;;1.10;;
9324;SDS011;4701;51.566;6.776;2022-07-06T15:15:54;7.50;;;1.00;;
9324;SDS011;4701;51.566;6.776;2022-07-06T15:17:56;2.43;;;0.70;;
9324;SDS011;4701;51.566;6.776;2022-07-06T15:19:58;2.78;;;0.93;;
9324;SDS011;4701;51.566;6.776;2022-07-06T15:22:00;3.08;;;0.90;;
9324;SDS011;4701;51.566;6.776;2022-07-06T15:24:02;3.45;;;1.00;;
9324;SDS011;4701;51.566;6.776;2022-07-06T15:26:05;4.07;;;0.88;;
9324;SDS011;4701;51.566;6.776;2022-07-06T15:28:07;4.18;;;0.95;;
9324;SDS011;4701;51.566;6.776;2022-07-06T15:30:11;3.17;;;0.80;;
9324;SDS011;4701;51.566;6.776;2022-07-06T15:32:13;2.27;;;1.00;;
9324;SDS011;4701;51.566;6.776;2022-07-06T15:34:15;1.97;;;0.60;;
9324;SDS011;4701;51.566;6.776;2022-07-06T15:36:17;2.17;;;0.90;;
9324;SDS011;4701;51.566;6.776;2022-07-06T15:38:19;1.63;;;0.60;;
9324;SDS011;4701;51.566;6.776;2022-07-06T15:40:21;1.53;;;0.73;;
9324;SDS011;4701;51.566;6.776;2022-07-06T15:42:24;3.22;;;0.93;;
9324;SDS011;4701;51.566;6.776;2022-07-06T15:44:25;2.13;;;1.10;;
9324;SDS011;4701;51.566;6.776;2022-07-06T15:46:29;1.88;;;0.80;;
9324;SDS011;4701;51.566;6.776;2022-07-06T15:48:31;2.75;;;0.93;;
9324;SDS011;4701;51.566;6.776;2022-07-06T15:50:33;1.23;;;0.80;;
9324;SDS011;4701;51.566;6.776;2022-07-06T15:52:35;2.42;;;0.77;;
9324;SDS011;4701;51.566;6.776;2022-07-06T15:54:37;3.28;;;0.85;;
9324;SDS011;4701;51.566;6.776;2022-07-06T15:56:39;1.83;;;1.20;;
9324;SDS011;4701;51.566;6.776;2022-07-06T15:58:41;2.83;;;0.70;;
9324;SDS011;4701;51.566;6.776;2022-07-06T16:00:43;2.40;;;1.10;;
9324;SDS011;4701;51.566;6.776;2022-07-06T16:02:49;1.93;;;1.10;;
9324;SDS011;4701;51.566;6.776;2022-07-06T16:04:51;3.30;;;1.20;;
9324;SDS011;4701;51.566;6.776;2022-07-06T16:06:53;2.90;;;1.53;;
9324;SDS011;4701;51.566;6.776;2022-07-06T16:08:55;2.13;;;1.20;;
9324;SDS011;4701;51.566;6.776;2022-07-06T16:10:57;1.77;;;1.00;;
9324;SDS011;4701;51.566;6.776;2022-07-06T16:12:59;2.67;;;1.10;;
9324;SDS011;4701;51.566;6.776;2022-07-06T16:15:00;8.47;;;1.07;;
9324;SDS011;4701;51.566;6.776;2022-07-06T16:17:02;5.37;;;1.07;;
9324;SDS011;4701;51.566;6.776;2022-07-06T16:19:06;6.10;;;0.87;;
9324;SDS011;4701;51.566;6.776;2022-07-06T16:21:08;2.20;;;1.00;;
9324;SDS011;4701;51.566;6.776;2022-07-06T16:23:09;4.07;;;0.80;;
9324;SDS011;4701;51.566;6.776;2022-07-06T16:25:11;3.40;;;0.73;;
9324;SDS011;4701;51.566;6.776;2022-07-06T16:27:13;3.00;;;0.93;;
9324;SDS011;4701;51.566;6.776;2022-07-06T16:29:15;3.80;;;1.00;;
9324;SDS011;4701;51.566;6.776;2022-07-06T16:31:17;2.60;;;0.93;;
9324;SDS011;4701;51.566;6.776;2022-07-06T16:33:19;1.87;;;0.80;;
9324;SDS011;4701;51.566;6.776;2022-07-06T16:35:22;2.53;;;0.90;;
9324;SDS011;4701;51.566;6.776;2022-07-06T16:37:24;6.10;;;0.80;;
9324;SDS011;4701;51.566;6.776;2022-07-06T16:39:25;3.27;;;0.87;;
9324;SDS011;4701;51.566;6.776;2022-07-06T16:41:27;3.37;;;0.90;;
9324;SDS011;4701;51.566;6.776;2022-07-06T16:43:29;1.73;;;0.80;;
9324;SDS011;4701;51.566;6.776;2022-07-06T16:45:31;1.17;;;0.80;;
9324;SDS011;4701;51.566;6.776;2022-07-06T16:47:34;4.77;;;0.90;;
9324;SDS011;4701;51.566;6.776;2022-07-06T16:49:35;2.57;;;0.90;;
9324;SDS011;4701;51.566;6.776;2022-07-06T16:51:39;2.27;;;1.10;;
9324;SDS011;4701;51.566;6.776;2022-07-06T16:53:41;2.97;;;1.30;;
9324;SDS011;4701;51.566;6.776;2022-07-06T16:55:42;2.10;;;0.90;;
9324;SDS011;4701;51.566;6.776;2022-07-06T16:57:44;2.93;;;0.90;;
9324;SDS011;4701;51.566;6.776;2022-07-06T16:59:46;3.87;;;0.90;;
9324;SDS011;4701;51.566;6.776;2022-07-06T17:01:48;1.57;;;0.90;;
9324;SDS011;4701;51.566;6.776;2022-07-06T17:03:50;2.93;;;1.00;;
9324;SDS011;4701;51.566;6.776;2022-07-06T17:05:55;2.20;;;0.70;;
9324;SDS011;4701;51.566;6.776;2022-07-06T17:08:01;4.53;;;0.87;;
9324;SDS011;4701;51.566;6.776;2022-07-06T17:10:06;1.73;;;0.70;;
9324;SDS011;4701;51.566;6.776;2022-07-06T17:12:08;3.87;;;1.00;;
9324;SDS011;4701;51.566;6.776;2022-07-06T17:14:10;2.23;;;0.80;;
9324;SDS011;4701;51.566;6.776;2022-07-06T17:16:15;4.97;;;0.97;;
9324;SDS011;4701;51.566;6.776;2022-07-06T17:18:16;2.67;;;0.90;;
9324;SDS011;4701;51.566;6.776;2022-07-06T17:20:18;3.77;;;1.07;;
9324;SDS011;4701;51.566;6.776;2022-07-06T17:22:20;2.23;;;0.67;;
9324;SDS011;4701;51.566;6.776;2022-07-06T17:24:24;8.27;;;1.13;;
9324;SDS011;4701;51.566;6.776;2022-07-06T17:26:25;5.30;;;1.13;;
9324;SDS011;4701;51.566;6.776;2022-07-06T17:28:27;2.30;;;0.90;;
9324;SDS011;4701;51.566;6.776;2022-07-06T17:30:29;1.50;;;0.90;;
9324;SDS011;4701;51.566;6.776;2022-07-06T17:32:33;1.93;;;1.00;;
9324;SDS011;4701;51.566;6.776;2022-07-06T17:34:35;3.00;;;1.00;;
9324;SDS011;4701;51.566;6.776;2022-07-06T17:36:37;2.17;;;0.80;;
9324;SDS011;4701;51.566;6.776;2022-07-06T17:38:39;3.90;;;1.00;;
9324;SDS011;4701;51.566;6.776;2022-07-06T17:40:43;1.83;;;0.93;;
9324;SDS011;4701;51.566;6.776;2022-07-06T17:42:45;2.50;;;0.90;;
9324;SDS011;4701;51.566;6.776;2022-07-06T17:44:47;3.13;;;0.90;;
9324;SDS011;4701;51.566;6.776;2022-07-06T17:46:49;2.07;;;0.90;;
9324;SDS011;4701;51.566;6.776;2022-07-06T17:48:51;3.23;;;0.83;;
9324;SDS011;4701;51.566;6.776;2022-07-06T17:51:06;2.80;;;0.70;;
9324;SDS011;4701;51.566;6.776;2022-07-06T17:53:08;2.83;;;1.13;;
9324;SDS011;4701;51.566;6.776;2022-07-06T17:55:11;4.20;;;1.00;;
9324;SDS011;4701;51.566;6.776;2022-07-06T17:57:16;2.30;;;1.03;;